Ardoch, North Dakota
Current Conditions -  °F | °C
As of 1:15 AM on Sunday 23 Nov 2014 (Local Time) from KGAF Reporting Station
Haze Haze  
Wind Chill: 24°   Ceiling: 600
Heat Index: 32°   Visibility: 5mi
Dew Point: 32°   Wind: 10mph
Humidity: 100%   Direction: 170°S
Pressure: 29.33"   Gusts: NA
Location:  48.21°N, 97.34°W
Report Text: KGAF 230715Z AUTO 17009KT 5SM BR OVC006 00/00 A2933 RMK AO2
Loading
Personal Weather Stations






























Interactive Weather Map New forecast layout! Learn more

10-Day Weather Forecast

Advertisements
Track Severe Weather on mobile